createdAt,value
2019-03-31T00:01:08.381Z,48.00
2019-03-31T00:03:38.671Z,41.77
2019-03-31T00:06:08.873Z,50.37
2019-03-31T00:08:40.401Z,50.27
2019-03-31T00:11:10.709Z,47.17
2019-03-31T00:13:40.988Z,47.83
2019-03-31T00:16:13.021Z,39.17
2019-03-31T00:18:43.412Z,41.80
2019-03-31T00:21:13.621Z,38.97
2019-03-31T00:23:44.224Z,35.30
2019-03-31T00:26:14.402Z,40.57
2019-03-31T00:28:45.474Z,37.30
2019-03-31T00:31:21.915Z,35.30
2019-03-31T00:33:47.775Z,35.57
2019-03-31T00:36:18.169Z,34.13
2019-03-31T00:38:48.465Z,36.63
2019-03-31T00:41:18.719Z,35.00
2019-03-31T00:43:49.167Z,30.67
2019-03-31T00:46:19.604Z,28.70
2019-03-31T00:48:49.748Z,30.07
2019-03-31T00:51:20.080Z,32.60
2019-03-31T00:53:50.317Z,30.60
2019-03-31T00:56:23.338Z,30.47
2019-03-31T00:58:53.849Z,36.40
2019-03-31T01:01:42.286Z,30.47
2019-03-31T01:04:12.752Z,26.87
2019-03-31T01:06:43.196Z,23.57
2019-03-31T01:09:25.780Z,21.17
2019-03-31T01:11:56.452Z,19.97
2019-03-31T01:14:28.972Z,21.00
2019-03-31T01:17:00.745Z,18.83
2019-03-31T01:19:31.174Z,15.77
2019-03-31T01:22:01.501Z,17.37
2019-03-31T01:24:31.737Z,17.80
2019-03-31T01:27:02.937Z,18.40
2019-03-31T01:29:34.787Z,18.97
2019-03-31T01:32:05.136Z,16.50
2019-03-31T01:34:35.390Z,16.10
2019-03-31T01:37:06.135Z,14.77
2019-03-31T01:39:36.856Z,17.47
2019-03-31T01:42:08.125Z,17.37
2019-03-31T01:44:38.653Z,17.13
2019-03-31T01:47:09.033Z,14.40
2019-03-31T01:49:39.195Z,18.57
2019-03-31T01:52:09.548Z,14.97
2019-03-31T01:54:43.415Z,17.60
2019-03-31T01:57:13.586Z,15.63
2019-03-31T01:59:44.039Z,18.00
2019-03-31T02:02:19.153Z,13.23
2019-03-31T02:04:49.304Z,19.57
2019-03-31T02:07:19.525Z,16.87
2019-03-31T02:09:49.783Z,16.50
2019-03-31T02:12:20.336Z,13.80
2019-03-31T02:14:50.687Z,19.60
2019-03-31T02:17:21.134Z,22.17
2019-03-31T02:19:51.531Z,15.40
2019-03-31T02:22:21.757Z,11.93
2019-03-31T02:24:51.990Z,13.13
2019-03-31T02:27:22.503Z,18.80
2019-03-31T02:29:54.149Z,17.00
2019-03-31T02:32:24.915Z,15.73
2019-03-31T02:34:55.627Z,11.27
2019-03-31T02:37:26.916Z,13.60
2019-03-31T02:39:57.127Z,13.77
2019-03-31T02:42:27.529Z,12.63
2019-03-31T02:44:57.725Z,14.97
2019-03-31T02:47:27.930Z,17.13
2019-03-31T02:50:03.996Z,12.77
2019-03-31T02:52:34.193Z,18.07
2019-03-31T02:55:05.249Z,14.00
2019-03-31T02:57:36.973Z,13.97
2019-03-31T03:00:07.762Z,15.23
2019-03-31T03:02:42.412Z,13.67
2019-03-31T03:05:19.451Z,15.97
2019-03-31T03:07:47.711Z,14.80
2019-03-31T03:10:18.855Z,13.90
2019-03-31T03:12:50.232Z,11.90
2019-03-31T03:15:27.738Z,8.90
2019-03-31T03:17:57.987Z,11.00
2019-03-31T03:20:28.213Z,11.97
2019-03-31T03:22:59.242Z,14.77
2019-03-31T03:25:29.996Z,11.83
2019-03-31T03:28:00.265Z,9.43
2019-03-31T03:30:30.697Z,14.53
2019-03-31T03:33:14.684Z,12.00
2019-03-31T03:35:33.125Z,9.63
2019-03-31T03:38:03.587Z,11.10
2019-03-31T03:40:34.267Z,10.60
2019-03-31T03:43:04.700Z,10.00
2019-03-31T03:45:36.596Z,11.77
2019-03-31T03:48:09.307Z,11.43
2019-03-31T03:50:41.003Z,10.90
2019-03-31T03:53:11.131Z,10.03
2019-03-31T03:55:41.401Z,11.70
2019-03-31T03:58:12.197Z,11.43
2019-03-31T04:00:42.352Z,11.37
2019-03-31T04:03:28.987Z,11.30
2019-03-31T04:05:45.047Z,11.40
2019-03-31T04:08:17.504Z,9.97
2019-03-31T04:11:25.464Z,8.30
2019-03-31T04:13:56.215Z,6.77
2019-03-31T04:16:26.945Z,6.33
2019-03-31T04:18:57.553Z,8.20
2019-03-31T04:21:28.032Z,11.23
2019-03-31T04:23:58.570Z,7.90
2019-03-31T04:26:29.429Z,5.33
2019-03-31T04:28:59.666Z,4.77
2019-03-31T04:31:29.818Z,4.13
2019-03-31T04:34:00.206Z,7.90
2019-03-31T04:36:31.741Z,6.37
2019-03-31T04:39:01.985Z,5.97
2019-03-31T04:41:32.385Z,4.83
2019-03-31T04:44:02.598Z,8.50
2019-03-31T04:46:32.836Z,5.63
2019-03-31T04:49:03.033Z,9.80
2019-03-31T04:51:33.249Z,6.57
2019-03-31T04:54:03.760Z,4.70
2019-03-31T04:56:34.557Z,5.10
2019-03-31T04:59:04.905Z,3.17
2019-03-31T05:01:35.705Z,7.60
2019-03-31T05:04:06.214Z,4.63
2019-03-31T05:06:36.465Z,7.00
2019-03-31T05:09:07.273Z,5.43
2019-03-31T05:11:37.833Z,5.97
2019-03-31T05:14:08.233Z,6.37
2019-03-31T05:16:38.541Z,6.90
2019-03-31T05:19:08.765Z,5.53
2019-03-31T05:21:39.029Z,4.13
2019-03-31T05:24:09.504Z,5.83
2019-03-31T05:26:40.373Z,6.30
2019-03-31T05:29:10.585Z,4.93
2019-03-31T05:31:40.847Z,4.80
2019-03-31T05:34:19.029Z,4.33
2019-03-31T05:36:44.097Z,9.20
2019-03-31T05:39:15.989Z,7.30
2019-03-31T05:41:46.535Z,4.47
2019-03-31T05:44:17.246Z,8.37
2019-03-31T05:46:47.561Z,5.33
2019-03-31T05:49:17.861Z,5.93
2019-03-31T05:51:48.008Z,5.37
2019-03-31T05:54:18.262Z,7.07
2019-03-31T05:56:48.549Z,4.10
2019-03-31T05:59:19.010Z,10.83
2019-03-31T06:01:49.451Z,9.57
2019-03-31T06:04:32.632Z,5.53
2019-03-31T06:06:51.507Z,5.23
2019-03-31T06:09:21.665Z,5.83
2019-03-31T06:11:53.572Z,11.50
2019-03-31T06:14:24.881Z,6.50
2019-03-31T06:16:55.053Z,6.20
2019-03-31T06:19:25.320Z,3.60
2019-03-31T06:21:55.519Z,6.73
2019-03-31T06:24:26.496Z,7.97
2019-03-31T06:26:56.724Z,6.83
2019-03-31T06:29:27.079Z,6.47
2019-03-31T06:31:57.787Z,8.33
2019-03-31T06:34:27.896Z,9.60
2019-03-31T06:36:58.098Z,8.60
2019-03-31T06:39:28.533Z,9.80
2019-03-31T06:41:58.773Z,9.37
2019-03-31T06:44:29.049Z,6.60
2019-03-31T06:46:59.193Z,9.03
2019-03-31T06:49:29.392Z,15.53
2019-03-31T06:51:59.543Z,8.17
2019-03-31T06:54:30.100Z,16.37
2019-03-31T06:57:00.509Z,9.67
2019-03-31T06:59:31.006Z,13.60
2019-03-31T07:02:03.266Z,9.10
2019-03-31T07:04:33.398Z,12.83
2019-03-31T07:07:04.114Z,11.30
2019-03-31T07:09:34.374Z,8.50
2019-03-31T07:12:04.508Z,9.80
2019-03-31T07:14:35.101Z,11.00
2019-03-31T07:17:05.449Z,9.60
2019-03-31T07:19:35.649Z,13.50
2019-03-31T07:22:06.134Z,17.53
2019-03-31T07:24:36.417Z,7.30
2019-03-31T07:27:06.930Z,10.20
2019-03-31T07:29:39.278Z,7.77
2019-03-31T07:32:09.405Z,8.03
2019-03-31T07:34:42.022Z,6.80
2019-03-31T07:37:12.288Z,6.90
2019-03-31T07:39:45.758Z,12.47
2019-03-31T07:42:14.496Z,10.20
2019-03-31T07:44:45.208Z,8.40
2019-03-31T07:47:15.424Z,6.80
2019-03-31T07:49:48.897Z,8.77
2019-03-31T07:52:19.039Z,13.80
2019-03-31T07:54:49.257Z,14.43
2019-03-31T07:57:20.883Z,10.73
2019-03-31T07:59:51.222Z,6.07
2019-03-31T08:02:27.109Z,9.07
2019-03-31T08:04:57.409Z,7.03
2019-03-31T08:07:30.329Z,13.13
2019-03-31T08:10:01.956Z,8.03
2019-03-31T08:12:32.236Z,11.77
2019-03-31T08:15:02.490Z,8.60
2019-03-31T08:17:32.936Z,9.90
2019-03-31T08:20:03.467Z,7.97
2019-03-31T08:22:33.908Z,8.40
2019-03-31T08:25:05.503Z,9.97
2019-03-31T08:27:35.688Z,11.87
2019-03-31T08:30:07.392Z,7.23
2019-03-31T08:32:37.971Z,6.20
2019-03-31T08:35:09.620Z,7.63
2019-03-31T08:37:40.165Z,5.97
2019-03-31T08:40:13.564Z,4.83
2019-03-31T08:42:44.249Z,2.70
2019-03-31T08:45:15.289Z,6.07
2019-03-31T08:47:45.756Z,3.53
2019-03-31T08:50:16.865Z,4.60
2019-03-31T08:52:47.345Z,5.73
2019-03-31T08:55:18.534Z,8.00
2019-03-31T08:57:48.781Z,4.37
2019-03-31T09:00:40.203Z,6.43
2019-03-31T09:03:11.460Z,7.53
2019-03-31T09:05:42.414Z,8.73
2019-03-31T09:08:14.442Z,4.70
2019-03-31T09:10:45.966Z,5.13
2019-03-31T09:13:16.460Z,4.23
2019-03-31T09:15:47.248Z,6.77
2019-03-31T09:18:19.842Z,3.53
2019-03-31T09:20:50.525Z,4.77
2019-03-31T09:23:20.930Z,6.40
2019-03-31T09:25:51.306Z,3.53
2019-03-31T09:28:23.065Z,5.73
2019-03-31T09:30:53.335Z,4.30
2019-03-31T09:33:26.342Z,3.40
2019-03-31T09:35:56.699Z,6.27
2019-03-31T09:38:27.321Z,4.67
2019-03-31T09:40:57.653Z,6.50
2019-03-31T09:43:28.618Z,6.33
2019-03-31T09:45:59.220Z,4.40
2019-03-31T09:48:29.474Z,3.87
2019-03-31T09:50:59.777Z,4.83
2019-03-31T09:53:30.494Z,4.63
2019-03-31T09:56:00.814Z,3.50
2019-03-31T09:58:31.661Z,6.33
2019-03-31T10:01:03.672Z,6.30
2019-03-31T10:03:34.715Z,3.60
2019-03-31T10:06:11.144Z,4.67
2019-03-31T10:08:40.290Z,4.43
2019-03-31T10:11:11.812Z,3.70
2019-03-31T10:13:43.877Z,5.23
2019-03-31T10:16:14.820Z,4.93
2019-03-31T10:18:45.624Z,2.43
2019-03-31T10:21:15.961Z,3.50
2019-03-31T10:23:46.803Z,5.90
2019-03-31T10:26:30.969Z,3.70
2019-03-31T10:28:49.918Z,4.30
2019-03-31T10:31:20.701Z,4.70
2019-03-31T10:33:51.274Z,2.40
2019-03-31T10:36:21.855Z,5.87
2019-03-31T10:38:52.406Z,5.57
2019-03-31T10:41:22.977Z,3.87
2019-03-31T10:43:53.392Z,3.93
2019-03-31T10:46:23.798Z,6.73
2019-03-31T10:48:54.074Z,4.30
2019-03-31T10:51:24.814Z,5.70
2019-03-31T10:53:57.367Z,5.23
2019-03-31T10:56:28.078Z,6.10
2019-03-31T10:58:58.517Z,3.73
2019-03-31T11:01:29.054Z,5.47
2019-03-31T11:03:59.201Z,5.60
2019-03-31T11:06:29.936Z,9.60
2019-03-31T11:09:00.201Z,5.33
2019-03-31T11:11:30.971Z,5.10
2019-03-31T11:14:01.254Z,5.07
2019-03-31T11:16:31.810Z,8.90
2019-03-31T11:19:02.462Z,5.20
2019-03-31T11:21:41.517Z,4.00
2019-03-31T11:24:12.848Z,7.23
2019-03-31T11:26:43.181Z,3.20
2019-03-31T11:29:14.144Z,5.47
2019-03-31T11:31:44.463Z,6.03
2019-03-31T11:34:14.650Z,4.13
2019-03-31T11:36:44.854Z,4.03
2019-03-31T11:39:16.399Z,5.57
2019-03-31T11:41:46.841Z,4.17
2019-03-31T11:44:17.357Z,5.50
2019-03-31T11:46:47.730Z,5.97
2019-03-31T11:49:18.044Z,7.60
2019-03-31T11:51:48.259Z,5.23
2019-03-31T11:54:18.373Z,7.00
2019-03-31T11:56:50.652Z,4.57
2019-03-31T11:59:21.109Z,6.33
2019-03-31T12:01:53.988Z,2.73
2019-03-31T12:04:24.262Z,5.50
2019-03-31T12:06:54.602Z,1.83
2019-03-31T12:09:24.853Z,4.03
2019-03-31T12:11:55.381Z,6.33
2019-03-31T12:14:25.596Z,4.10
2019-03-31T12:16:56.697Z,4.80
2019-03-31T12:19:27.852Z,3.97
2019-03-31T12:21:58.545Z,3.00
2019-03-31T12:24:28.702Z,7.30
2019-03-31T12:26:58.896Z,5.77
2019-03-31T12:29:29.083Z,12.60
2019-03-31T12:31:59.431Z,6.30
2019-03-31T12:34:29.562Z,5.70
2019-03-31T12:37:01.278Z,5.40
2019-03-31T12:39:31.505Z,3.53
2019-03-31T12:42:01.778Z,3.60
2019-03-31T12:44:32.165Z,5.10
2019-03-31T12:47:02.292Z,4.20
2019-03-31T12:49:32.643Z,3.10
2019-03-31T12:52:03.017Z,3.90
2019-03-31T12:54:33.306Z,2.17
2019-03-31T12:57:04.284Z,4.27
2019-03-31T12:59:34.796Z,7.33
2019-03-31T13:02:05.221Z,3.07
2019-03-31T13:04:35.524Z,6.10
2019-03-31T13:07:06.285Z,5.33
2019-03-31T13:09:36.689Z,3.13
2019-03-31T13:12:07.016Z,5.20
2019-03-31T13:14:37.925Z,5.70
2019-03-31T13:17:10.553Z,4.50
2019-03-31T13:19:40.748Z,4.77
2019-03-31T13:22:11.146Z,2.43
2019-03-31T13:24:41.296Z,3.67
2019-03-31T13:27:11.505Z,4.30
2019-03-31T13:29:41.757Z,7.13
2019-03-31T13:32:14.391Z,9.40
2019-03-31T13:34:44.638Z,5.10
2019-03-31T13:37:14.881Z,4.70
2019-03-31T13:39:48.285Z,5.90
2019-03-31T13:42:19.161Z,4.77
2019-03-31T13:44:50.290Z,7.73
2019-03-31T13:47:20.645Z,3.43
2019-03-31T13:49:52.938Z,3.00
2019-03-31T13:52:23.585Z,3.40
2019-03-31T13:54:54.252Z,4.03
2019-03-31T13:57:26.271Z,3.70
2019-03-31T13:59:57.840Z,5.00
2019-03-31T14:02:29.136Z,4.60
2019-03-31T14:04:59.672Z,2.90
2019-03-31T14:07:30.313Z,5.73
2019-03-31T14:10:01.046Z,4.60
2019-03-31T14:12:31.631Z,5.27
2019-03-31T14:15:02.228Z,5.17
2019-03-31T14:17:32.999Z,4.80
2019-03-31T14:20:03.890Z,3.90
2019-03-31T14:22:34.239Z,6.67
2019-03-31T14:25:04.929Z,4.20
2019-03-31T14:27:35.281Z,5.00
2019-03-31T14:30:06.584Z,3.90
2019-03-31T14:32:36.885Z,5.67
2019-03-31T14:35:07.736Z,1.80
2019-03-31T14:37:38.524Z,4.53
2019-03-31T14:40:09.429Z,3.03
2019-03-31T14:42:39.899Z,5.10
2019-03-31T14:45:13.257Z,3.37
2019-03-31T14:47:44.271Z,6.80
2019-03-31T14:50:19.012Z,5.07
2019-03-31T14:52:49.297Z,6.10
2019-03-31T14:55:19.876Z,4.23
2019-03-31T14:57:50.559Z,7.00
2019-03-31T15:00:21.465Z,4.63
2019-03-31T15:02:52.030Z,5.20
2019-03-31T15:05:22.905Z,4.63
2019-03-31T15:07:53.266Z,5.53
2019-03-31T15:10:24.618Z,6.77
2019-03-31T15:12:54.984Z,6.13
2019-03-31T15:15:25.577Z,3.10
2019-03-31T15:17:56.417Z,7.40
2019-03-31T15:20:27.208Z,4.60
2019-03-31T15:22:58.605Z,5.27
2019-03-31T15:25:28.934Z,3.67
2019-03-31T15:27:59.320Z,3.23
2019-03-31T15:30:30.869Z,4.53
2019-03-31T15:33:13.804Z,3.03
2019-03-31T15:35:44.057Z,4.03
2019-03-31T15:38:14.455Z,5.53
2019-03-31T15:40:48.600Z,3.60
2019-03-31T15:43:20.612Z,3.53
2019-03-31T15:45:52.004Z,5.03
2019-03-31T15:48:22.229Z,3.43
2019-03-31T15:50:52.714Z,3.30
2019-03-31T15:53:23.494Z,3.00
2019-03-31T15:55:53.864Z,4.20
2019-03-31T15:58:24.112Z,6.30
2019-03-31T16:00:54.629Z,3.00
2019-03-31T16:03:25.206Z,4.23
2019-03-31T16:05:56.255Z,4.10
2019-03-31T16:08:31.552Z,5.60
2019-03-31T16:11:04.684Z,4.00
2019-03-31T16:13:32.886Z,6.10
2019-03-31T16:16:02.897Z,2.83
2019-03-31T16:18:32.674Z,2.80
2019-03-31T16:21:02.555Z,3.93
2019-03-31T16:23:32.208Z,3.80
2019-03-31T16:26:02.085Z,3.40
2019-03-31T16:28:31.977Z,3.17
2019-03-31T16:31:01.772Z,4.70
2019-03-31T16:33:32.725Z,5.60
2019-03-31T16:36:02.468Z,4.60
2019-03-31T16:38:32.878Z,2.60
2019-03-31T16:41:02.515Z,2.40
2019-03-31T16:43:32.241Z,5.63
2019-03-31T16:46:02.830Z,2.20
2019-03-31T16:48:37.938Z,3.73
2019-03-31T16:51:07.656Z,3.00
2019-03-31T16:53:37.841Z,3.03
2019-03-31T16:56:10.049Z,5.23
2019-03-31T16:58:39.752Z,2.43
2019-03-31T17:01:09.528Z,4.63
2019-03-31T17:03:39.204Z,2.60
2019-03-31T17:06:08.974Z,7.67
2019-03-31T17:08:38.791Z,3.83
2019-03-31T17:11:08.502Z,3.33
2019-03-31T17:13:38.359Z,3.63
2019-03-31T17:16:08.233Z,4.10
2019-03-31T17:18:38.536Z,3.50
2019-03-31T17:21:10.355Z,3.13
2019-03-31T17:23:40.035Z,3.43
2019-03-31T17:26:09.698Z,2.60
2019-03-31T17:28:39.435Z,4.60
2019-03-31T17:31:09.496Z,2.93
2019-03-31T17:33:45.860Z,5.33
2019-03-31T17:36:15.607Z,3.83
2019-03-31T17:38:51.263Z,5.40
2019-03-31T17:41:22.882Z,2.87
2019-03-31T17:43:52.971Z,7.50
2019-03-31T17:46:22.886Z,3.50
2019-03-31T17:48:52.700Z,3.93
2019-03-31T17:51:22.320Z,2.90
2019-03-31T17:53:51.998Z,2.13
2019-03-31T17:56:22.893Z,4.23
2019-03-31T17:58:53.393Z,3.50
2019-03-31T18:01:23.596Z,8.33
2019-03-31T18:03:53.479Z,3.23
2019-03-31T18:06:23.388Z,4.60
2019-03-31T18:08:53.085Z,1.87
2019-03-31T18:11:24.421Z,2.10
2019-03-31T18:13:54.364Z,5.87
2019-03-31T18:16:25.913Z,5.50
2019-03-31T18:18:55.474Z,2.90
2019-03-31T18:21:27.270Z,4.30
2019-03-31T18:23:56.698Z,2.90
2019-03-31T18:26:26.735Z,3.57
2019-03-31T18:28:56.501Z,1.77
2019-03-31T18:31:26.173Z,4.30
2019-03-31T18:33:55.989Z,3.10
2019-03-31T18:36:36.534Z,4.60
2019-03-31T18:38:58.126Z,3.97
2019-03-31T18:41:27.878Z,2.90
2019-03-31T18:43:57.568Z,5.40
2019-03-31T18:46:27.498Z,3.17
2019-03-31T18:48:57.510Z,5.97
2019-03-31T18:51:27.603Z,5.13
2019-03-31T18:54:19.689Z,4.10
2019-03-31T18:57:07.982Z,4.37
2019-03-31T18:59:49.099Z,5.30
2019-03-31T19:02:50.367Z,3.73
2019-03-31T19:05:43.072Z,6.90
2019-03-31T19:08:38.149Z,6.70
2019-03-31T19:11:34.365Z,3.20
2019-03-31T19:14:43.219Z,4.47
2019-03-31T19:17:38.669Z,5.13
2019-03-31T19:21:09.951Z,3.10
2019-03-31T19:23:45.649Z,4.13
2019-03-31T19:26:23.968Z,4.33
2019-03-31T19:29:12.122Z,4.43
2019-03-31T19:32:16.237Z,7.73
2019-03-31T19:34:57.650Z,5.73
2019-03-31T19:37:45.192Z,5.43
2019-03-31T19:40:41.600Z,8.90
2019-03-31T19:43:29.630Z,2.80
2019-03-31T19:46:21.717Z,6.17
2019-03-31T19:49:14.046Z,4.03
2019-03-31T19:52:07.773Z,8.83
2019-03-31T19:54:46.310Z,3.33
2019-03-31T19:57:54.286Z,3.90
2019-03-31T20:00:33.384Z,3.50
2019-03-31T20:03:11.102Z,3.93
2019-03-31T20:05:50.320Z,4.43
2019-03-31T20:08:39.144Z,5.37
2019-03-31T20:11:16.195Z,4.00
2019-03-31T20:13:56.537Z,6.57
2019-03-31T20:16:34.815Z,8.17
2019-03-31T20:19:32.482Z,8.27
2019-03-31T20:22:16.396Z,3.90
2019-03-31T20:24:59.129Z,5.00
2019-03-31T20:28:07.672Z,7.67
2019-03-31T20:31:05.537Z,3.80
2019-03-31T20:33:55.766Z,4.57
2019-03-31T20:36:43.182Z,7.13
2019-03-31T20:39:21.880Z,5.40
2019-03-31T20:42:10.837Z,6.73
2019-03-31T20:44:40.453Z,4.70
2019-03-31T20:47:10.308Z,8.63
2019-03-31T20:49:40.159Z,5.27
2019-03-31T20:52:09.903Z,4.07
2019-03-31T20:54:39.542Z,4.77
2019-03-31T20:57:10.186Z,3.77
2019-03-31T20:59:40.123Z,11.23
2019-03-31T21:02:09.869Z,2.93
2019-03-31T21:04:39.424Z,5.70
2019-03-31T21:07:10.123Z,6.90
2019-03-31T21:09:45.044Z,5.07
2019-03-31T21:12:12.117Z,3.90
2019-03-31T21:14:41.845Z,5.13
2019-03-31T21:17:11.535Z,3.70
2019-03-31T21:19:41.097Z,6.63
2019-03-31T21:22:10.846Z,4.70
2019-03-31T21:24:40.657Z,7.53
2019-03-31T21:27:10.569Z,7.40
2019-03-31T21:29:40.192Z,4.97
2019-03-31T21:32:09.884Z,4.73
2019-03-31T21:34:39.527Z,4.53
2019-03-31T21:37:09.167Z,8.97
2019-03-31T21:39:38.793Z,2.70
2019-03-31T21:42:08.732Z,8.30
2019-03-31T21:44:38.652Z,3.30
2019-03-31T21:47:08.605Z,4.70
2019-03-31T21:49:38.257Z,2.60
2019-03-31T21:52:07.874Z,7.37
2019-03-31T21:54:37.588Z,6.83
2019-03-31T21:57:07.373Z,2.90
2019-03-31T21:59:36.993Z,6.77
2019-03-31T22:02:06.661Z,3.73
2019-03-31T22:04:36.397Z,5.30
2019-03-31T22:07:06.186Z,4.37
2019-03-31T22:09:35.895Z,2.97
2019-03-31T22:12:05.752Z,5.07
2019-03-31T22:14:36.389Z,5.67
2019-03-31T22:17:05.976Z,6.60
2019-03-31T22:19:35.618Z,4.10
2019-03-31T22:22:05.338Z,5.53
2019-03-31T22:24:35.029Z,4.57
2019-03-31T22:27:04.722Z,2.80
2019-03-31T22:29:34.366Z,5.20
2019-03-31T22:32:03.964Z,3.87
2019-03-31T22:34:34.161Z,4.73
2019-03-31T22:37:03.753Z,6.03
2019-03-31T22:39:33.894Z,6.13
2019-03-31T22:42:03.720Z,4.47
2019-03-31T22:44:33.330Z,4.43
2019-03-31T22:47:03.312Z,5.60
2019-03-31T22:49:32.903Z,6.37
2019-03-31T22:52:02.562Z,4.43
2019-03-31T22:54:32.241Z,6.20
2019-03-31T22:57:02.002Z,3.33
2019-03-31T22:59:31.923Z,4.77
2019-03-31T23:02:01.680Z,3.87
2019-03-31T23:04:31.306Z,4.30
2019-03-31T23:07:00.918Z,5.77
2019-03-31T23:09:30.603Z,7.53
2019-03-31T23:12:00.198Z,4.20
2019-03-31T23:14:29.832Z,3.70
2019-03-31T23:16:59.413Z,6.30
2019-03-31T23:19:29.101Z,5.23
2019-03-31T23:21:58.993Z,8.07
2019-03-31T23:24:28.919Z,3.60
2019-03-31T23:26:58.583Z,4.70
2019-03-31T23:29:28.191Z,2.50
2019-03-31T23:31:57.794Z,6.80
2019-03-31T23:34:27.577Z,4.67
2019-03-31T23:36:57.241Z,6.07
2019-03-31T23:39:27.127Z,3.70
2019-03-31T23:41:56.801Z,3.17
2019-03-31T23:44:26.648Z,6.50
2019-03-31T23:46:56.262Z,5.77
2019-03-31T23:49:25.921Z,3.00
2019-03-31T23:51:55.675Z,3.10
2019-03-31T23:54:25.430Z,5.07
2019-03-31T23:56:55.375Z,3.70
2019-03-31T23:59:25.096Z,4.73
